createdAt,value
2019-02-10T00:02:08.246Z,-0.30
2019-02-10T00:04:49.311Z,-0.40
2019-02-10T00:07:28.571Z,-0.40
2019-02-10T00:10:16.625Z,-0.40
2019-02-10T00:13:23.871Z,-0.50
2019-02-10T00:16:13.377Z,-0.50
2019-02-10T00:19:02.181Z,-0.60
2019-02-10T00:21:50.314Z,-0.60
2019-02-10T00:24:38.458Z,-0.60
2019-02-10T00:27:26.590Z,-0.60
2019-02-10T00:30:14.813Z,-0.60
2019-02-10T00:33:03.222Z,-0.60
2019-02-10T00:35:51.362Z,-0.60
2019-02-10T00:38:31.706Z,-0.60
2019-02-10T00:41:12.669Z,-0.60
2019-02-10T00:43:41.523Z,-0.60
2019-02-10T00:46:29.579Z,-0.60
2019-02-10T00:49:17.654Z,-0.50
2019-02-10T00:52:05.709Z,-0.60
2019-02-10T00:54:53.754Z,-0.50
2019-02-10T00:57:41.821Z,-0.50
2019-02-10T01:00:30.138Z,-0.50
2019-02-10T01:03:18.203Z,-0.60
2019-02-10T01:06:06.318Z,-0.60
2019-02-10T01:08:54.459Z,-0.60
2019-02-10T01:11:42.647Z,-0.60
2019-02-10T01:14:31.068Z,-0.60
2019-02-10T01:17:19.439Z,-0.60
2019-02-10T01:20:07.571Z,-0.60
2019-02-10T01:22:55.676Z,-0.60
2019-02-10T01:25:43.742Z,-0.60
2019-02-10T01:28:31.786Z,-0.60
2019-02-10T01:31:19.851Z,-0.60
2019-02-10T01:34:07.984Z,-0.60
2019-02-10T01:36:56.102Z,-0.60
2019-02-10T01:39:36.959Z,-0.60
2019-02-10T01:42:17.402Z,-0.50
2019-02-10T01:44:58.249Z,-0.60
2019-02-10T01:47:39.352Z,-0.60
2019-02-10T01:50:19.726Z,-0.60
2019-02-10T01:53:00.402Z,-0.60
2019-02-10T01:55:40.800Z,-0.70
2019-02-10T01:58:21.628Z,-0.70
2019-02-10T02:01:02.380Z,-0.70
2019-02-10T02:03:42.886Z,-0.70
2019-02-10T02:06:23.453Z,-0.80
2019-02-10T02:09:05.856Z,-0.80
2019-02-10T02:11:46.821Z,-0.80
2019-02-10T02:14:27.216Z,-0.80
2019-02-10T02:17:08.145Z,-0.80
2019-02-10T02:19:47.490Z,-0.80
2019-02-10T02:22:35.632Z,-0.80
2019-02-10T02:25:23.674Z,-0.80
2019-02-10T02:28:11.715Z,-0.80
2019-02-10T02:31:00.022Z,-0.80
2019-02-10T02:33:48.385Z,-0.80
2019-02-10T02:36:42.049Z,-0.80
2019-02-10T02:39:23.049Z,-0.80
2019-02-10T02:42:04.201Z,-0.80
2019-02-10T02:44:44.929Z,-0.80
2019-02-10T02:47:25.699Z,-0.80
2019-02-10T02:50:06.511Z,-0.80
2019-02-10T02:52:47.209Z,-0.80
2019-02-10T02:55:28.114Z,-0.80
2019-02-10T03:00:50.978Z,-0.80
2019-02-10T03:03:32.088Z,-0.80
2019-02-10T03:06:12.815Z,-0.80
2019-02-10T03:08:53.855Z,-0.80
2019-02-10T03:11:35.183Z,-0.80
2019-02-10T03:14:15.925Z,-0.80
2019-02-10T03:16:56.522Z,-0.80
2019-02-10T03:19:36.919Z,-0.80
2019-02-10T03:22:17.954Z,-0.80
2019-02-10T03:24:59.367Z,-0.80
2019-02-10T03:27:39.767Z,-0.80
2019-02-10T03:30:20.785Z,-0.80
2019-02-10T03:33:01.516Z,-0.90
2019-02-10T03:35:42.610Z,-0.80
2019-02-10T03:38:23.224Z,-0.80
2019-02-10T03:40:52.063Z,-0.80
2019-02-10T03:43:40.186Z,-0.70
2019-02-10T03:46:28.492Z,-0.70
2019-02-10T03:49:16.529Z,-0.70
2019-02-10T03:52:04.666Z,-0.60
2019-02-10T03:54:52.719Z,-0.60
2019-02-10T03:57:40.778Z,-0.50
2019-02-10T04:00:29.137Z,-0.50
2019-02-10T04:03:17.193Z,-0.50
2019-02-10T04:06:05.546Z,-0.50
2019-02-10T04:08:53.860Z,-0.40
2019-02-10T04:11:42.154Z,-0.50
2019-02-10T04:14:30.287Z,-0.50
2019-02-10T04:17:18.809Z,-0.50
2019-02-10T04:20:06.934Z,-0.50
2019-02-10T04:22:54.992Z,-0.40
2019-02-10T04:25:43.029Z,-0.40
2019-02-10T04:28:31.092Z,-0.20
2019-02-10T04:31:19.143Z,-0.20
2019-02-10T04:34:07.199Z,-0.10
2019-02-10T04:36:55.253Z,0.00
2019-02-10T04:39:35.932Z,0.20
2019-02-10T04:42:16.975Z,0.30
2019-02-10T04:47:44.246Z,0.70
2019-02-10T04:50:25.420Z,0.80
2019-02-10T04:53:06.158Z,0.90
2019-02-10T04:55:47.305Z,1.10
2019-02-10T04:58:28.160Z,1.30
2019-02-10T05:03:50.696Z,1.50
2019-02-10T05:09:13.641Z,1.70
2019-02-10T05:11:55.061Z,1.80
2019-02-10T05:14:35.583Z,1.90
2019-02-10T05:17:16.542Z,1.90
2019-02-10T05:19:57.337Z,2.20
2019-02-10T05:22:39.360Z,2.30
2019-02-10T05:25:20.595Z,2.30
2019-02-10T05:28:01.347Z,2.50
2019-02-10T05:30:41.810Z,2.60
2019-02-10T05:33:23.054Z,2.60
2019-02-10T05:36:03.528Z,2.60
2019-02-10T05:38:44.726Z,2.60
2019-02-10T05:41:25.596Z,2.50
2019-02-10T05:46:52.071Z,2.50
2019-02-10T05:49:33.031Z,2.60
2019-02-10T05:52:14.307Z,2.70
2019-02-10T05:54:54.972Z,3.10
2019-02-10T05:57:37.083Z,3.40
2019-02-10T06:03:00.312Z,3.40
2019-02-10T06:05:41.501Z,3.30
2019-02-10T06:08:22.359Z,3.30
2019-02-10T06:13:45.565Z,3.10
2019-02-10T06:16:26.764Z,3.10
2019-02-10T06:19:07.775Z,3.00
2019-02-10T06:21:48.944Z,2.90
2019-02-10T06:24:29.272Z,2.70
2019-02-10T06:27:10.354Z,2.60
2019-02-10T06:29:51.634Z,2.50
2019-02-10T06:32:32.334Z,2.40
2019-02-10T06:35:13.570Z,2.40
2019-02-10T06:37:54.534Z,2.40
2019-02-10T06:40:35.007Z,2.50
2019-02-10T06:43:16.371Z,2.40
2019-02-10T06:45:56.837Z,2.50
2019-02-10T06:48:37.299Z,2.60
2019-02-10T06:51:17.915Z,2.70
2019-02-10T06:53:58.537Z,2.60
2019-02-10T06:56:39.388Z,2.60
2019-02-10T06:59:38.792Z,2.60
2019-02-10T07:02:38.237Z,2.60
2019-02-10T07:05:18.830Z,2.90
2019-02-10T07:07:59.412Z,3.10
2019-02-10T07:10:39.789Z,3.00
2019-02-10T07:13:20.310Z,2.80
2019-02-10T07:16:00.707Z,2.70
2019-02-10T07:18:41.499Z,2.60
2019-02-10T07:21:21.884Z,2.50
2019-02-10T07:24:02.581Z,2.60
2019-02-10T07:26:43.341Z,2.60
2019-02-10T07:29:24.247Z,2.60
2019-02-10T07:32:05.043Z,2.70
2019-02-10T07:34:48.339Z,3.00
2019-02-10T07:37:28.031Z,3.30
2019-02-10T07:40:35.345Z,3.60
2019-02-10T07:46:51.487Z,4.10
2019-02-10T07:49:58.834Z,4.30
2019-02-10T07:53:06.078Z,4.50
2019-02-10T07:56:13.334Z,4.60
2019-02-10T07:59:20.585Z,4.80
2019-02-10T08:02:27.853Z,5.00
2019-02-10T08:05:35.131Z,4.80
2019-02-10T08:08:46.671Z,5.00
2019-02-10T08:11:38.396Z,5.30
2019-02-10T08:14:45.736Z,5.60
2019-02-10T08:17:53.621Z,5.80
2019-02-10T08:21:00.995Z,5.90
2019-02-10T08:26:46.056Z,6.30
2019-02-10T08:29:53.311Z,6.20
2019-02-10T08:33:00.571Z,6.30
2019-02-10T08:36:08.035Z,6.50
2019-02-10T08:41:35.275Z,7.10
2019-02-10T08:44:15.907Z,7.40
2019-02-10T08:46:56.785Z,7.60
2019-02-10T08:49:37.725Z,7.60
2019-02-10T08:52:18.371Z,7.60
2019-02-10T08:54:59.048Z,7.70
2019-02-10T08:57:39.842Z,7.60
2019-02-10T09:00:20.965Z,7.50
2019-02-10T09:03:02.229Z,7.40
2019-02-10T09:05:31.125Z,7.60
2019-02-10T09:08:19.189Z,7.60
2019-02-10T09:11:07.234Z,7.20
2019-02-10T09:13:55.275Z,6.90
2019-02-10T09:16:43.325Z,6.90
2019-02-10T09:19:31.370Z,7.30
2019-02-10T09:22:19.422Z,7.40
2019-02-10T09:25:08.024Z,7.40
2019-02-10T09:27:56.085Z,7.50
2019-02-10T09:30:44.206Z,7.60
2019-02-10T09:33:32.253Z,7.70
2019-02-10T09:36:20.391Z,7.80
2019-02-10T09:39:01.106Z,8.00
2019-02-10T09:41:42.029Z,8.40
2019-02-10T09:44:22.711Z,8.80
2019-02-10T09:47:03.596Z,8.90
2019-02-10T09:49:44.490Z,9.10
2019-02-10T09:52:24.918Z,9.50
2019-02-10T09:55:05.887Z,9.90
2019-02-10T09:57:46.987Z,10.00
2019-02-10T10:00:27.587Z,10.10
2019-02-10T10:03:08.414Z,10.40
2019-02-10T10:05:49.551Z,10.30
2019-02-10T10:08:30.284Z,10.70
2019-02-10T10:11:10.895Z,11.00
2019-02-10T10:13:52.036Z,11.10
2019-02-10T10:16:32.869Z,10.70
2019-02-10T10:19:13.418Z,10.70
2019-02-10T10:21:54.038Z,10.60
2019-02-10T10:24:35.241Z,10.40
2019-02-10T10:27:15.920Z,9.90
2019-02-10T10:29:57.043Z,9.70
2019-02-10T10:32:37.723Z,9.80
2019-02-10T10:35:18.037Z,10.00
2019-02-10T10:37:58.589Z,10.00
2019-02-10T10:40:39.917Z,10.40
2019-02-10T10:43:21.068Z,11.20
2019-02-10T10:46:01.836Z,12.40
2019-02-10T10:48:42.507Z,13.30
2019-02-10T10:51:22.982Z,14.00
2019-02-10T10:54:03.709Z,14.30
2019-02-10T10:56:44.755Z,13.50
2019-02-10T10:59:25.774Z,13.30
2019-02-10T11:02:06.471Z,13.10
2019-02-10T11:04:47.231Z,13.20
2019-02-10T11:07:27.844Z,15.00
2019-02-10T11:10:08.522Z,16.90
2019-02-10T11:15:32.382Z,17.20
2019-02-10T11:18:16.727Z,15.80
2019-02-10T11:23:39.339Z,12.40
2019-02-10T11:26:20.034Z,11.40
2019-02-10T11:29:03.895Z,11.70
2019-02-10T11:34:34.420Z,10.80
2019-02-10T11:37:14.859Z,10.60
2019-02-10T11:42:51.659Z,9.70
2019-02-10T11:45:32.279Z,9.90
2019-02-10T11:48:12.931Z,10.70
2019-02-10T11:50:53.470Z,10.80
2019-02-10T11:53:34.337Z,12.20
2019-02-10T11:56:15.060Z,13.20
2019-02-10T11:58:55.853Z,12.60
2019-02-10T12:01:36.429Z,13.10
2019-02-10T12:04:17.547Z,12.80
2019-02-10T12:06:58.634Z,11.50
2019-02-10T12:09:40.184Z,10.70
2019-02-10T12:12:21.079Z,11.10
2019-02-10T12:15:01.963Z,10.80
2019-02-10T12:17:42.533Z,11.30
2019-02-10T12:20:22.966Z,11.50
2019-02-10T12:23:03.486Z,11.90
2019-02-10T12:25:44.547Z,11.60
2019-02-10T12:31:07.301Z,10.80
2019-02-10T12:33:47.927Z,11.40
2019-02-10T12:36:28.730Z,11.90
2019-02-10T12:39:09.441Z,12.20
2019-02-10T12:41:50.277Z,11.80
2019-02-10T12:44:31.420Z,11.30
2019-02-10T12:47:11.830Z,11.70
2019-02-10T12:49:52.363Z,11.80
2019-02-10T12:52:33.034Z,11.50
2019-02-10T12:55:13.556Z,11.20
2019-02-10T12:57:54.822Z,11.20
2019-02-10T13:00:35.283Z,10.80
2019-02-10T13:03:15.806Z,10.80
2019-02-10T13:05:57.108Z,10.30
2019-02-10T13:08:37.583Z,10.30
2019-02-10T13:11:18.546Z,10.40
2019-02-10T13:13:59.107Z,10.60
2019-02-10T13:16:40.324Z,10.20
2019-02-10T13:19:20.985Z,10.20
2019-02-10T13:22:01.555Z,10.40
2019-02-10T13:24:42.266Z,10.60
2019-02-10T13:27:22.918Z,10.70
2019-02-10T13:30:03.815Z,10.80
2019-02-10T13:32:44.512Z,10.40
2019-02-10T13:35:25.306Z,10.20
2019-02-10T13:38:06.234Z,10.10
2019-02-10T13:40:47.559Z,9.80
2019-02-10T13:43:33.628Z,9.90
2019-02-10T13:46:11.309Z,9.70
2019-02-10T13:51:33.842Z,9.80
2019-02-10T13:54:02.727Z,9.60
2019-02-10T13:56:50.774Z,9.50
2019-02-10T13:59:38.823Z,9.50
2019-02-10T14:02:26.875Z,9.30
2019-02-10T14:05:14.994Z,9.50
2019-02-10T14:08:03.057Z,9.40
2019-02-10T14:10:51.183Z,9.50
2019-02-10T14:13:39.234Z,9.00
2019-02-10T14:16:27.548Z,9.00
2019-02-10T14:19:15.664Z,9.00
2019-02-10T14:22:03.796Z,8.90
2019-02-10T14:24:51.918Z,8.90
2019-02-10T14:27:40.028Z,8.80
2019-02-10T14:30:28.206Z,8.70
2019-02-10T14:32:57.159Z,8.80
2019-02-10T14:35:45.202Z,8.70
2019-02-10T14:38:40.486Z,8.60
2019-02-10T14:41:28.530Z,8.50
2019-02-10T14:44:16.836Z,8.40
2019-02-10T14:47:04.872Z,8.30
2019-02-10T14:49:52.939Z,8.20
2019-02-10T14:52:41.000Z,8.10
2019-02-10T14:55:29.042Z,7.90
2019-02-10T14:58:17.099Z,7.80
2019-02-10T15:01:05.460Z,7.70
2019-02-10T15:03:53.518Z,7.60
2019-02-10T15:06:41.579Z,7.50
2019-02-10T15:09:29.643Z,7.50
2019-02-10T15:12:17.686Z,7.40
2019-02-10T15:15:06.550Z,7.30
2019-02-10T15:17:54.601Z,7.20
2019-02-10T15:20:42.658Z,7.00
2019-02-10T15:23:30.719Z,6.80
2019-02-10T15:26:18.779Z,6.70
2019-02-10T15:29:06.843Z,6.50
2019-02-10T15:31:55.203Z,6.50
2019-02-10T15:34:43.279Z,6.30
2019-02-10T15:37:31.349Z,6.30
2019-02-10T15:40:12.115Z,6.30
2019-02-10T15:42:52.928Z,6.30
2019-02-10T15:45:34.723Z,6.20
2019-02-10T15:48:15.086Z,6.10
2019-02-10T15:53:41.883Z,5.80
2019-02-10T15:59:04.366Z,5.50
2019-02-10T16:01:45.635Z,5.50
2019-02-10T16:04:27.336Z,5.40
2019-02-10T16:07:08.197Z,5.20
2019-02-10T16:09:51.965Z,5.20
2019-02-10T16:15:18.853Z,4.90
2019-02-10T16:17:58.043Z,4.60
2019-02-10T16:20:46.120Z,4.60
2019-02-10T16:23:34.178Z,4.50
2019-02-10T16:26:22.713Z,4.50
2019-02-10T16:32:12.804Z,4.50
2019-02-10T16:35:00.875Z,4.50
2019-02-10T16:37:49.267Z,4.40
2019-02-10T16:40:30.401Z,4.40
2019-02-10T16:43:11.460Z,4.30
2019-02-10T16:45:40.358Z,4.30
2019-02-10T16:48:28.562Z,4.20
2019-02-10T16:51:16.627Z,4.20
2019-02-10T16:54:04.674Z,4.10
2019-02-10T16:56:52.740Z,4.10
2019-02-10T16:59:21.573Z,4.00
2019-02-10T17:02:09.643Z,3.90
2019-02-10T17:04:57.804Z,3.70
2019-02-10T17:07:45.854Z,3.50
2019-02-10T17:10:33.918Z,3.50
2019-02-10T17:13:21.966Z,3.50
2019-02-10T17:16:10.105Z,3.60
2019-02-10T17:18:58.162Z,3.50
2019-02-10T17:21:46.312Z,3.40
2019-02-10T17:24:34.412Z,3.50
2019-02-10T17:27:22.614Z,3.60
2019-02-10T17:30:11.178Z,3.70
2019-02-10T17:32:59.375Z,3.70
2019-02-10T17:35:47.510Z,3.80
2019-02-10T17:38:35.592Z,3.90
2019-02-10T17:41:22.588Z,3.80
2019-02-10T17:43:58.789Z,3.80
2019-02-10T17:46:39.379Z,3.80
2019-02-10T17:49:20.054Z,3.80
2019-02-10T17:52:00.755Z,3.70
2019-02-10T17:54:41.368Z,3.60
2019-02-10T17:57:21.925Z,3.50
2019-02-10T18:00:03.268Z,3.50
2019-02-10T18:02:44.477Z,3.80
2019-02-10T18:05:24.831Z,3.90
2019-02-10T18:08:05.755Z,4.30
2019-02-10T18:10:46.241Z,4.80
2019-02-10T18:13:28.232Z,5.10
2019-02-10T18:16:28.611Z,5.60
2019-02-10T18:19:16.583Z,5.90
2019-02-10T18:22:19.920Z,6.10
2019-02-10T18:25:23.332Z,6.20
2019-02-10T18:28:22.746Z,6.20
2019-02-10T18:31:15.239Z,6.30
2019-02-10T18:34:15.406Z,6.20
2019-02-10T18:37:15.031Z,6.30
2019-02-10T18:40:14.627Z,6.30
2019-02-10T18:43:08.942Z,6.30
2019-02-10T18:46:02.519Z,6.20
2019-02-10T18:49:05.086Z,6.20
2019-02-10T18:52:05.014Z,6.20
2019-02-10T18:54:52.371Z,6.30
2019-02-10T18:57:38.591Z,6.20
2019-02-10T19:00:40.945Z,6.20
2019-02-10T19:03:29.545Z,6.30
2019-02-10T19:06:32.643Z,6.30
2019-02-10T19:09:21.199Z,6.30
2019-02-10T19:12:20.610Z,6.40
2019-02-10T19:15:14.882Z,6.40
2019-02-10T19:18:06.427Z,6.40
2019-02-10T19:21:12.711Z,6.30
2019-02-10T19:23:56.950Z,6.30
2019-02-10T19:26:57.052Z,6.30
2019-02-10T19:32:38.889Z,6.30
2019-02-10T19:38:35.249Z,5.80
2019-02-10T19:41:34.943Z,5.10
2019-02-10T19:47:37.855Z,4.50
2019-02-10T19:50:37.815Z,4.20
2019-02-10T19:53:41.165Z,4.00
2019-02-10T19:56:40.517Z,3.90
2019-02-10T19:59:40.486Z,3.70
2019-02-10T20:02:41.751Z,3.60
2019-02-10T20:05:49.082Z,3.50
2019-02-10T20:08:56.186Z,3.40
2019-02-10T20:11:52.715Z,3.40
2019-02-10T20:14:59.829Z,3.30
2019-02-10T20:18:06.930Z,3.20
2019-02-10T20:21:14.310Z,3.20
2019-02-10T20:24:21.407Z,3.20
2019-02-10T20:27:28.495Z,3.30
2019-02-10T20:30:35.591Z,3.30
2019-02-10T20:33:42.683Z,3.20
2019-02-10T20:36:49.767Z,3.20
2019-02-10T20:39:33.586Z,3.10
2019-02-10T20:42:24.962Z,3.10
2019-02-10T20:45:09.713Z,3.20
2019-02-10T20:48:03.558Z,3.10
2019-02-10T20:50:54.210Z,3.20
2019-02-10T20:56:39.399Z,3.30
2019-02-10T20:59:42.180Z,3.30
2019-02-10T21:02:47.853Z,3.50
2019-02-10T21:05:47.409Z,3.60
2019-02-10T21:08:46.842Z,3.70
2019-02-10T21:11:49.314Z,3.80
2019-02-10T21:17:36.635Z,3.80
2019-02-10T21:20:26.758Z,3.80
2019-02-10T21:23:20.539Z,3.70
2019-02-10T21:26:21.184Z,3.70
2019-02-10T21:29:09.059Z,3.70
2019-02-10T21:32:16.152Z,3.60
2019-02-10T21:35:23.465Z,3.60
2019-02-10T21:38:30.557Z,3.70
2019-02-10T21:41:33.546Z,3.70
2019-02-10T21:44:22.710Z,3.60
2019-02-10T21:47:15.174Z,3.60
2019-02-10T21:49:56.146Z,3.60
2019-02-10T21:52:36.946Z,3.60
2019-02-10T21:55:17.697Z,3.60
2019-02-10T21:57:58.410Z,3.70
2019-02-10T22:00:38.970Z,3.80
2019-02-10T22:03:19.568Z,3.90
2019-02-10T22:06:00.389Z,4.00
2019-02-10T22:11:23.371Z,4.00
2019-02-10T22:14:04.184Z,4.00
2019-02-10T22:16:44.762Z,4.00
2019-02-10T22:19:25.578Z,4.20
2019-02-10T22:22:06.420Z,4.20
2019-02-10T22:24:47.410Z,4.20
2019-02-10T22:27:28.107Z,4.30
2019-02-10T22:30:09.192Z,4.40
2019-02-10T22:32:49.810Z,4.30
2019-02-10T22:35:30.434Z,4.30
2019-02-10T22:38:11.443Z,4.20
2019-02-10T22:40:52.140Z,4.10
2019-02-10T22:43:33.106Z,4.10
2019-02-10T22:46:13.937Z,4.10
2019-02-10T22:48:54.516Z,4.10
2019-02-10T22:51:35.438Z,4.10
2019-02-10T22:54:16.095Z,4.00
2019-02-10T22:56:56.852Z,4.00
2019-02-10T22:59:37.651Z,4.00
2019-02-10T23:02:18.240Z,4.00
2019-02-10T23:04:59.059Z,4.00
2019-02-10T23:07:39.795Z,4.10
2019-02-10T23:10:20.674Z,4.00
2019-02-10T23:13:01.367Z,4.00
2019-02-10T23:15:42.014Z,3.90
2019-02-10T23:18:22.764Z,3.90
2019-02-10T23:21:03.197Z,4.00
2019-02-10T23:23:43.729Z,4.00
2019-02-10T23:26:24.107Z,3.90
2019-02-10T23:29:04.790Z,3.90
2019-02-10T23:31:45.601Z,3.90
2019-02-10T23:34:26.228Z,3.90
2019-02-10T23:37:06.879Z,3.90
2019-02-10T23:39:47.515Z,3.90
2019-02-10T23:42:28.243Z,3.90
2019-02-10T23:45:09.293Z,3.90
2019-02-10T23:47:49.990Z,3.90
2019-02-10T23:50:30.671Z,3.90
2019-02-10T23:53:11.624Z,3.80
2019-02-10T23:55:52.266Z,3.90
2019-02-10T23:58:33.113Z,3.80
